Time;durP1;ratioP1;P1;durP2;ratioP2;P2;SDS_P1;SDS_P2;PMS_P1;PMS_P2;Temp;Humidity;BMP_temperature;BMP_pressure;BME280_temperature;BME280_humidity;BME280_pressure;Samples;Min_cycle;Max_cycle;Signal;HPM_P1;HPM_P2
2023/04/29 00:01:24;;;;;;;4.30;2.65;;;13.00;91.10;;;;;;5058270;28;20028;-73
2023/04/29 00:03:50;;;;;;;5.22;3.20;;;13.10;91.10;;;;;;5057939;28;20037;-73
2023/04/29 00:06:16;;;;;;;3.75;2.70;;;13.00;91.00;;;;;;5057839;28;20535;-73
2023/04/29 00:08:42;;;;;;;4.65;2.92;;;13.00;91.10;;;;;;5057759;28;20090;-73
2023/04/29 00:11:07;;;;;;;4.30;2.50;;;13.00;90.90;;;;;;5058189;28;20016;-73
2023/04/29 00:13:33;;;;;;;3.60;2.67;;;13.00;90.70;;;;;;5058082;28;20032;-73
2023/04/29 00:15:59;;;;;;;3.63;2.50;;;13.00;90.70;;;;;;5057861;28;20021;-74
2023/04/29 00:18:24;;;;;;;3.75;2.50;;;13.00;90.70;;;;;;5057941;28;20033;-74
2023/04/29 00:20:50;;;;;;;6.32;3.35;;;12.90;90.70;;;;;;5058125;28;20020;-74
2023/04/29 00:23:15;;;;;;;3.22;2.50;;;13.00;90.50;;;;;;5057716;28;20488;-73
2023/04/29 00:25:41;;;;;;;4.40;2.45;;;12.90;90.60;;;;;;5057804;28;20354;-74
2023/04/29 00:28:07;;;;;;;2.70;2.40;;;12.90;90.60;;;;;;5057997;28;20492;-73
2023/04/29 00:30:33;;;;;;;5.63;2.70;;;13.00;90.40;;;;;;5057643;28;20025;-74
2023/04/29 00:32:58;;;;;;;2.30;2.10;;;12.80;90.20;;;;;;5057661;28;20021;-73
2023/04/29 00:35:24;;;;;;;3.00;2.10;;;12.80;90.50;;;;;;5057763;28;20048;-74
2023/04/29 00:37:50;;;;;;;2.42;2.00;;;12.80;90.50;;;;;;5057600;28;20045;-73
2023/04/29 00:40:16;;;;;;;6.13;2.25;;;12.70;90.50;;;;;;5057816;28;20050;-73
2023/04/29 00:42:41;;;;;;;3.45;2.00;;;12.70;90.60;;;;;;5059821;28;20032;-73
2023/04/29 00:45:08;;;;;;;4.75;2.08;;;12.70;90.70;;;;;;5058163;28;20079;-73
2023/04/29 00:47:34;;;;;;;3.72;2.10;;;12.60;90.50;;;;;;5056827;28;20032;-73
2023/04/29 00:50:00;;;;;;;3.92;2.20;;;12.60;90.60;;;;;;5057696;28;20021;-74
2023/04/29 00:52:29;;;;;;;5.63;1.75;;;12.60;90.60;;;;;;5056450;28;20079;-73
2023/04/29 00:54:55;;;;;;;2.17;1.83;;;12.60;90.70;;;;;;5057416;28;20044;-74
2023/04/29 00:57:21;;;;;;;3.13;1.90;;;12.60;90.70;;;;;;5057608;28;20073;-73
2023/04/29 00:59:48;;;;;;;2.95;2.13;;;12.70;90.60;;;;;;5057430;28;20514;-73
2023/04/29 01:02:16;;;;;;;2.75;1.60;;;12.60;90.40;;;;;;5057034;28;20453;-73
2023/04/29 01:04:42;;;;;;;4.78;1.90;;;12.60;90.30;;;;;;5057030;28;20039;-73
2023/04/29 01:07:17;;;;;;;2.33;1.85;;;12.60;90.20;;;;;;5057348;28;20090;-73
2023/04/29 01:10:03;;;;;;;2.42;1.65;;;12.60;90.20;;;;;;5057010;28;20504;-74
2023/04/29 01:12:33;;;;;;;2.58;1.75;;;12.60;90.30;;;;;;5056808;28;20385;-73
2023/04/29 01:15:09;;;;;;;2.13;1.92;;;12.60;90.40;;;;;;5056664;28;20123;-73
2023/04/29 01:17:47;;;;;;;1.80;1.70;;;12.50;90.40;;;;;;5056976;28;20021;-73
2023/04/29 01:20:13;;;;;;;4.07;2.08;;;12.50;90.30;;;;;;5056908;28;20115;-73
2023/04/29 01:22:39;;;;;;;2.13;1.73;;;12.50;90.50;;;;;;5056547;28;20029;-73
2023/04/29 01:25:06;;;;;;;2.10;1.90;;;12.50;90.40;;;;;;5056480;28;20136;-74
2023/04/29 01:27:56;;;;;;;3.33;2.38;;;12.50;90.40;;;;;;5056592;28;20103;-77
2023/04/29 01:30:50;;;;;;;5.00;2.53;;;12.50;90.30;;;;;;5066406;28;20472;-74
2023/04/29 01:33:34;;;;;;;47.95;16.42;;;12.50;90.10;;;;;;5065240;28;20056;-74
2023/04/29 01:36:32;;;;;;;52.13;18.58;;;12.50;90.00;;;;;;5069596;28;20071;-73
2023/04/29 01:39:15;;;;;;;45.17;17.83;;;12.40;89.90;;;;;;5066691;28;20055;-74
2023/04/29 01:41:52;;;;;;;37.67;14.98;;;12.40;89.80;;;;;;5060438;28;20024;-74
2023/04/29 01:44:22;;;;;;;21.13;8.88;;;12.40;89.80;;;;;;5056519;28;20445;-73
2023/04/29 01:46:53;;;;;;;9.35;4.15;;;12.40;90.00;;;;;;5056558;28;20017;-75
2023/04/29 01:49:28;;;;;;;5.32;3.00;;;12.40;90.10;;;;;;5057091;28;20020;-75
2023/04/29 01:51:54;;;;;;;7.03;4.13;;;12.40;90.50;;;;;;5056400;28;20028;-73
2023/04/29 01:54:21;;;;;;;12.48;8.52;;;12.40;90.90;;;;;;5056148;28;20033;-74
2023/04/29 01:56:47;;;;;;;12.70;7.10;;;12.30;90.70;;;;;;5056094;28;20060;-73
2023/04/29 01:59:12;;;;;;;6.90;5.28;;;12.30;90.80;;;;;;5056296;28;20078;-72
2023/04/29 02:01:38;;;;;;;6.90;4.68;;;12.20;91.00;;;;;;5056039;28;20031;-72
2023/04/29 02:04:03;;;;;;;6.07;3.75;;;12.20;91.40;;;;;;5039410;28;20032;-74
2023/04/29 02:06:31;;;;;;;3.85;2.95;;;12.20;91.50;;;;;;5056227;28;20024;-73
2023/04/29 02:08:57;;;;;;;4.25;3.15;;;12.10;91.70;;;;;;5055851;28;20032;-74
2023/04/29 02:11:23;;;;;;;3.53;3.10;;;12.20;92.10;;;;;;5055271;28;20055;-73
2023/04/29 02:13:49;;;;;;;6.00;4.72;;;12.20;92.40;;;;;;5055847;28;20052;-74
2023/04/29 02:16:15;;;;;;;9.25;6.20;;;12.20;92.30;;;;;;5055772;28;20499;-73
2023/04/29 02:18:41;;;;;;;16.65;10.88;;;12.20;92.20;;;;;;5055668;28;20025;-73
2023/04/29 02:21:07;;;;;;;16.27;10.95;;;12.30;92.20;;;;;;5055743;28;20051;-73
2023/04/29 02:23:33;;;;;;;15.85;10.90;;;12.40;92.00;;;;;;5055525;28;20068;-73
2023/04/29 02:26:00;;;;;;;15.63;10.93;;;12.30;91.70;;;;;;5055374;28;20526;-72
2023/04/29 02:28:26;;;;;;;9.40;7.20;;;12.30;91.50;;;;;;5055629;28;20178;-73
2023/04/29 02:30:51;;;;;;;8.40;5.45;;;12.20;91.60;;;;;;5055817;28;20024;-73
2023/04/29 02:33:19;;;;;;;6.32;4.90;;;12.20;91.90;;;;;;5073680;28;20029;-74
2023/04/29 02:35:44;;;;;;;5.45;4.63;;;12.30;92.20;;;;;;5055145;28;20020;-73
2023/04/29 02:38:10;;;;;;;5.10;3.67;;;12.30;92.20;;;;;;5055615;28;20039;-73
2023/04/29 02:40:46;;;;;;;3.72;3.33;;;12.30;92.20;;;;;;5055489;28;20029;-73
2023/04/29 02:43:12;;;;;;;4.63;3.38;;;12.30;92.30;;;;;;5055381;28;20037;-74
2023/04/29 02:45:38;;;;;;;3.38;2.80;;;12.30;92.20;;;;;;5055352;28;20119;-75
2023/04/29 02:48:05;;;;;;;7.95;3.50;;;12.20;92.00;;;;;;5055442;28;20025;-74
2023/04/29 02:50:30;;;;;;;5.22;3.90;;;12.20;91.90;;;;;;5055548;28;20023;-72
2023/04/29 02:52:56;;;;;;;14.02;5.50;;;12.20;91.90;;;;;;5055084;28;20024;-72
2023/04/29 02:55:22;;;;;;;6.93;5.53;;;12.20;91.80;;;;;;5055167;28;20346;-73
2023/04/29 02:57:47;;;;;;;7.80;4.68;;;12.30;91.90;;;;;;5055159;28;20123;-73
2023/04/29 03:00:13;;;;;;;6.05;4.00;;;12.20;91.50;;;;;;5055445;28;20046;-73
2023/04/29 03:02:39;;;;;;;4.97;3.80;;;12.20;91.60;;;;;;5055276;28;20412;-73
2023/04/29 03:05:05;;;;;;;6.07;3.35;;;12.20;91.60;;;;;;5055340;28;20399;-74
2023/04/29 03:07:31;;;;;;;4.20;2.72;;;12.20;91.70;;;;;;5055018;28;20428;-73
2023/04/29 03:09:56;;;;;;;4.93;2.50;;;12.20;91.80;;;;;;5054970;28;20161;-73
2023/04/29 03:12:22;;;;;;;6.25;2.20;;;12.20;91.50;;;;;;5055068;28;20385;-73
2023/04/29 03:14:48;;;;;;;2.55;2.30;;;12.20;91.40;;;;;;5055693;28;20032;-72
2023/04/29 03:17:14;;;;;;;2.45;1.80;;;12.20;91.50;;;;;;5059408;28;20028;-73
2023/04/29 03:19:40;;;;;;;3.00;2.40;;;12.20;91.50;;;;;;5059308;28;20536;-73
2023/04/29 03:22:07;;;;;;;5.57;2.55;;;12.30;91.30;;;;;;5058767;28;20123;-73
2023/04/29 03:24:32;;;;;;;2.53;2.25;;;12.20;91.00;;;;;;5059369;28;20035;-73
2023/04/29 03:26:59;;;;;;;4.07;2.28;;;12.20;90.80;;;;;;5059085;28;20024;-73
2023/04/29 03:29:26;;;;;;;3.40;2.45;;;12.20;90.70;;;;;;5059045;28;20039;-74
2023/04/29 03:31:52;;;;;;;5.32;2.40;;;12.20;90.70;;;;;;5058781;28;20078;-73
2023/04/29 03:34:17;;;;;;;3.05;2.75;;;12.20;90.80;;;;;;5058821;28;20024;-75
2023/04/29 03:36:43;;;;;;;3.55;2.80;;;12.20;90.70;;;;;;5055469;28;20045;-73
2023/04/29 03:39:08;;;;;;;4.70;3.85;;;12.20;90.70;;;;;;5055457;28;20068;-73
2023/04/29 03:41:34;;;;;;;4.00;2.72;;;12.20;90.50;;;;;;5054790;28;20048;-73
2023/04/29 03:44:00;;;;;;;5.70;2.42;;;12.10;90.50;;;;;;5055228;28;20033;-74
2023/04/29 03:46:26;;;;;;;3.17;2.50;;;12.10;90.60;;;;;;5055214;28;20021;-75
2023/04/29 03:48:54;;;;;;;9.50;2.58;;;12.10;90.80;;;;;;5055096;28;20067;-75
2023/04/29 03:51:21;;;;;;;4.05;2.65;;;12.10;90.80;;;;;;5054985;28;20021;-74
2023/04/29 03:53:47;;;;;;;3.38;2.20;;;12.20;90.80;;;;;;5055068;28;20111;-75
2023/04/29 03:56:12;;;;;;;2.17;1.92;;;12.20;90.60;;;;;;5055327;28;20141;-73
2023/04/29 03:58:38;;;;;;;3.10;2.30;;;12.20;90.50;;;;;;5055030;28;20017;-73
2023/04/29 04:01:03;;;;;;;2.40;1.95;;;12.20;90.50;;;;;;5054734;28;20032;-74
2023/04/29 04:03:29;;;;;;;3.30;2.42;;;12.20;90.30;;;;;;5054675;28;20037;-74
2023/04/29 04:05:54;;;;;;;2.33;1.92;;;12.20;90.10;;;;;;5054678;28;20025;-74
2023/04/29 04:08:20;;;;;;;2.15;1.95;;;12.20;90.10;;;;;;5054962;28;20461;-75
2023/04/29 04:10:45;;;;;;;6.15;2.10;;;12.10;90.30;;;;;;5054736;28;20504;-74
2023/04/29 04:13:11;;;;;;;2.55;1.63;;;12.10;90.30;;;;;;5054737;28;20021;-74
2023/04/29 04:15:37;;;;;;;3.03;1.85;;;12.10;91.10;;;;;;5054777;28;20025;-73
2023/04/29 04:18:02;;;;;;;3.60;1.52;;;12.10;90.30;;;;;;5054678;28;20470;-75
2023/04/29 04:20:28;;;;;;;3.05;2.17;;;12.10;90.30;;;;;;5054436;28;20113;-74
2023/04/29 04:22:53;;;;;;;2.72;1.77;;;12.10;90.10;;;;;;5054689;28;20055;-73
2023/04/29 04:25:19;;;;;;;2.42;1.90;;;12.00;89.90;;;;;;5054762;28;20465;-73
2023/04/29 04:27:45;;;;;;;2.70;2.08;;;12.00;89.90;;;;;;5053176;28;20040;-73
2023/04/29 04:30:11;;;;;;;3.22;1.90;;;12.00;89.90;;;;;;5054402;28;20377;-73
2023/04/29 04:32:38;;;;;;;3.25;2.10;;;12.00;89.90;;;;;;5054143;28;20074;-73
2023/04/29 04:35:03;;;;;;;5.57;2.30;;;12.00;89.90;;;;;;5054197;28;20032;-72
2023/04/29 04:37:29;;;;;;;2.17;1.80;;;12.00;89.50;;;;;;5054001;28;20041;-72
2023/04/29 04:39:55;;;;;;;4.68;2.40;;;12.00;89.40;;;;;;5053841;28;20029;-73
2023/04/29 04:42:22;;;;;;;3.15;1.90;;;11.90;89.40;;;;;;5054203;28;20086;-73
2023/04/29 04:44:47;;;;;;;2.72;1.67;;;11.90;89.10;;;;;;5054254;28;20040;-73
2023/04/29 04:47:13;;;;;;;1.80;1.67;;;11.90;89.20;;;;;;5054056;28;20025;-73
2023/04/29 04:49:38;;;;;;;2.33;1.60;;;11.90;89.20;;;;;;5053946;28;20032;-73
2023/04/29 04:52:04;;;;;;;3.40;2.13;;;11.90;89.10;;;;;;5054228;28;20483;-72
2023/04/29 04:54:30;;;;;;;2.60;2.05;;;11.90;89.10;;;;;;5054027;28;20029;-72
2023/04/29 04:56:56;;;;;;;2.63;2.13;;;12.00;88.90;;;;;;5053906;28;20397;-72
2023/04/29 04:59:21;;;;;;;2.20;2.00;;;12.10;89.10;;;;;;5053908;28;20033;-72
2023/04/29 05:01:47;;;;;;;6.22;2.80;;;12.10;88.90;;;;;;5053674;28;20420;-72
2023/04/29 05:04:12;;;;;;;3.70;2.40;;;12.10;88.40;;;;;;5053661;28;20083;-74
2023/04/29 05:06:38;;;;;;;2.65;2.30;;;12.20;88.50;;;;;;5053779;28;20017;-72
2023/04/29 05:09:03;;;;;;;2.92;2.00;;;12.30;88.40;;;;;;5053642;28;20116;-74
2023/04/29 05:11:29;;;;;;;2.47;1.85;;;12.40;88.00;;;;;;5053663;28;20163;-72
2023/04/29 05:13:55;;;;;;;2.33;2.00;;;12.40;87.50;;;;;;5053552;28;20048;-72
2023/04/29 05:16:21;;;;;;;4.63;2.50;;;12.50;86.90;;;;;;5053571;28;20154;-74
2023/04/29 05:18:47;;;;;;;3.83;2.22;;;12.50;86.20;;;;;;5053450;28;20025;-76
2023/04/29 05:21:13;;;;;;;4.93;2.65;;;12.50;86.30;;;;;;5053645;28;20025;-76
2023/04/29 05:23:39;;;;;;;5.95;2.47;;;12.50;85.90;;;;;;5053399;28;20114;-74
2023/04/29 05:26:04;;;;;;;2.47;2.20;;;12.50;85.70;;;;;;5053648;28;20027;-73
2023/04/29 05:28:30;;;;;;;5.03;2.38;;;12.50;85.80;;;;;;5053383;28;20465;-73
2023/04/29 05:30:56;;;;;;;3.42;2.05;;;12.60;85.80;;;;;;5053316;28;20027;-75
2023/04/29 05:33:21;;;;;;;2.30;2.00;;;12.60;85.70;;;;;;5053177;28;20040;-73
2023/04/29 05:35:47;;;;;;;2.10;1.90;;;12.60;85.80;;;;;;5054647;28;20115;-76
2023/04/29 05:38:12;;;;;;;3.30;2.10;;;12.60;85.90;;;;;;5054357;28;20056;-74
2023/04/29 05:40:39;;;;;;;2.88;2.17;;;12.70;86.00;;;;;;5036524;28;20079;-72
2023/04/29 05:43:06;;;;;;;4.05;2.13;;;12.70;85.80;;;;;;5036048;28;20123;-73
2023/04/29 05:45:31;;;;;;;2.10;1.90;;;12.80;85.90;;;;;;5036230;28;20035;-73
2023/04/29 05:47:57;;;;;;;2.80;1.75;;;12.80;85.90;;;;;;5035911;28;20459;-77
2023/04/29 05:50:22;;;;;;;3.65;1.73;;;12.70;85.90;;;;;;5036126;28;20013;-75
2023/04/29 05:52:48;;;;;;;3.88;2.30;;;12.70;86.10;;;;;;5035870;28;20028;-75
2023/04/29 05:55:14;;;;;;;2.53;2.33;;;12.70;86.50;;;;;;5036527;28;20025;-79
2023/04/29 05:57:39;;;;;;;2.63;2.42;;;12.70;86.80;;;;;;5036479;28;20086;-74
2023/04/29 06:00:06;;;;;;;6.15;2.80;;;12.70;87.20;;;;;;5036134;28;20028;-74
2023/04/29 06:02:32;;;;;;;4.32;2.97;;;12.70;87.10;;;;;;5036525;28;20037;-76
2023/04/29 06:04:58;;;;;;;3.83;2.60;;;12.80;87.10;;;;;;5036621;28;20021;-74
2023/04/29 06:07:25;;;;;;;6.18;3.30;;;12.80;87.00;;;;;;5036440;28;20376;-77
2023/04/29 06:09:51;;;;;;;3.20;2.90;;;12.90;87.10;;;;;;5036478;28;20444;-75
2023/04/29 06:12:16;;;;;;;2.70;2.30;;;12.90;87.10;;;;;;5036614;28;20057;-77
2023/04/29 06:14:43;;;;;;;5.35;3.00;;;13.10;87.30;;;;;;5036616;28;20111;-75
2023/04/29 06:17:08;;;;;;;3.75;2.63;;;13.20;87.10;;;;;;5035840;28;20103;-75
2023/04/29 06:19:34;;;;;;;3.25;2.67;;;13.30;86.90;;;;;;5035638;28;20063;-74
2023/04/29 06:22:00;;;;;;;5.05;2.28;;;13.50;86.70;;;;;;5035884;28;20373;-76
2023/04/29 06:24:25;;;;;;;3.40;2.83;;;13.60;86.50;;;;;;5025976;28;20037;-74
2023/04/29 06:26:51;;;;;;;2.88;2.58;;;13.70;86.10;;;;;;5048862;28;20021;-74
2023/04/29 06:29:16;;;;;;;2.85;2.30;;;13.90;85.70;;;;;;5045393;28;20037;-75
2023/04/29 06:31:44;;;;;;;4.07;3.67;;;14.00;85.40;;;;;;5043522;28;20025;-74
2023/04/29 06:34:10;;;;;;;4.72;3.53;;;14.10;85.10;;;;;;5042215;28;20029;-73
2023/04/29 06:36:35;;;;;;;7.55;3.85;;;14.20;84.90;;;;;;5037054;28;20079;-72
2023/04/29 06:39:01;;;;;;;6.90;2.92;;;14.20;84.50;;;;;;5039830;28;20029;-74
2023/04/29 06:41:27;;;;;;;3.60;3.30;;;14.30;83.80;;;;;;5042405;28;20017;-73
2023/04/29 06:43:52;;;;;;;4.82;3.13;;;14.10;83.50;;;;;;5036076;28;20041;-73
2023/04/29 06:46:18;;;;;;;4.75;3.40;;;14.00;84.10;;;;;;5035598;28;20485;-73
2023/04/29 06:48:44;;;;;;;5.10;3.42;;;14.00;84.60;;;;;;5035165;28;20024;-74
2023/04/29 06:51:10;;;;;;;5.65;3.47;;;13.90;85.40;;;;;;5034820;28;20028;-72
2023/04/29 06:53:36;;;;;;;4.93;2.72;;;13.90;85.60;;;;;;5035245;28;20021;-73
2023/04/29 06:56:01;;;;;;;4.25;3.60;;;13.90;84.50;;;;;;5035348;28;20021;-73
2023/04/29 06:58:27;;;;;;;5.60;2.90;;;14.00;84.20;;;;;;5034940;28;20029;-74
2023/04/29 07:00:52;;;;;;;4.47;3.10;;;13.90;83.70;;;;;;5035139;28;20013;-73
2023/04/29 07:03:18;;;;;;;3.58;3.08;;;14.00;83.50;;;;;;5035663;28;20063;-75
2023/04/29 07:05:44;;;;;;;3.75;3.28;;;14.00;82.40;;;;;;5035324;28;20032;-77
2023/04/29 07:08:12;;;;;;;15.85;3.47;;;14.10;82.60;;;;;;5034908;28;20036;-74
2023/04/29 07:10:40;;;;;;;14.55;2.90;;;14.20;83.50;;;;;;5034580;28;20029;-73
2023/04/29 07:13:06;;;;;;;7.05;3.40;;;14.40;84.10;;;;;;5035045;28;20025;-75
2023/04/29 07:15:35;;;;;;;13.70;3.47;;;14.60;82.20;;;;;;5018664;28;20033;-74
2023/04/29 07:18:04;;;;;;;9.50;2.67;;;14.90;81.60;;;;;;5035131;28;20099;-73
2023/04/29 07:20:30;;;;;;;5.72;2.60;;;15.10;79.50;;;;;;5035443;28;20024;-74
2023/04/29 07:22:56;;;;;;;4.55;2.85;;;15.20;78.70;;;;;;5039625;28;20036;-74
2023/04/29 07:25:21;;;;;;;10.02;3.03;;;15.30;78.00;;;;;;5034837;28;20028;-73
2023/04/29 07:27:47;;;;;;;6.68;2.90;;;15.50;78.00;;;;;;5035219;28;20083;-77
2023/04/29 07:30:13;;;;;;;10.05;2.63;;;15.50;77.10;;;;;;5039909;28;20448;-74
2023/04/29 07:32:38;;;;;;;9.18;2.75;;;15.60;75.80;;;;;;5035358;28;20021;-73
2023/04/29 07:35:04;;;;;;;7.03;2.40;;;15.60;75.70;;;;;;5035315;28;20060;-74
2023/04/29 07:37:30;;;;;;;4.28;1.98;;;15.60;74.40;;;;;;5034765;28;20048;-74
2023/04/29 07:39:56;;;;;;;3.10;1.77;;;15.60;74.70;;;;;;5034979;28;20813;-74
2023/04/29 07:42:21;;;;;;;4.60;1.90;;;15.60;74.30;;;;;;5035028;28;20461;-74
2023/04/29 07:44:47;;;;;;;4.05;1.85;;;15.60;73.90;;;;;;5034278;28;20048;-74
2023/04/29 07:47:12;;;;;;;3.13;1.80;;;15.70;73.30;;;;;;5034832;28;20034;-74
2023/04/29 07:49:40;;;;;;;1.48;1.25;;;15.70;73.60;;;;;;5035037;28;20130;-74
2023/04/29 07:52:06;;;;;;;2.10;1.70;;;15.90;73.20;;;;;;5034718;28;20053;-74
2023/04/29 07:54:32;;;;;;;2.58;1.33;;;16.00;72.40;;;;;;5034646;28;20021;-74
2023/04/29 07:56:59;;;;;;;3.08;1.42;;;16.00;72.40;;;;;;5034245;28;20047;-74
2023/04/29 07:59:25;;;;;;;1.58;1.02;;;16.00;72.20;;;;;;5034324;28;20036;-76
2023/04/29 08:01:52;;;;;;;1.40;1.27;;;16.00;71.40;;;;;;5037208;28;20447;-75
2023/04/29 08:04:18;;;;;;;3.70;1.67;;;15.80;70.30;;;;;;5038760;28;20032;-75
2023/04/29 08:06:43;;;;;;;3.60;1.58;;;15.60;71.30;;;;;;5038173;28;20374;-75
2023/04/29 08:09:09;;;;;;;1.45;1.30;;;15.50;73.10;;;;;;5038153;28;20025;-75
2023/04/29 08:11:35;;;;;;;2.50;1.23;;;15.30;74.20;;;;;;5037890;28;20024;-75
2023/04/29 08:14:01;;;;;;;3.78;2.00;;;15.10;74.70;;;;;;5021527;28;20025;-75
2023/04/29 08:16:26;;;;;;;4.13;1.70;;;15.00;74.70;;;;;;5038175;28;20114;-75
2023/04/29 08:18:53;;;;;;;1.77;1.65;;;14.80;75.10;;;;;;5037972;28;20071;-75
2023/04/29 08:21:19;;;;;;;2.30;1.50;;;14.90;75.20;;;;;;5038013;28;20044;-74
2023/04/29 08:23:44;;;;;;;2.17;1.73;;;14.80;75.40;;;;;;5037537;28;20029;-74
2023/04/29 08:26:11;;;;;;;5.07;1.77;;;14.80;75.70;;;;;;5037500;28;20123;-75
2023/04/29 08:28:37;;;;;;;1.60;1.40;;;14.80;74.80;;;;;;5037852;28;20123;-74
2023/04/29 08:31:06;;;;;;;4.05;1.23;;;14.90;74.90;;;;;;5037213;28;20028;-76
2023/04/29 08:33:35;;;;;;;2.97;1.38;;;15.00;75.00;;;;;;5021511;28;20037;-76
2023/04/29 08:36:04;;;;;;;2.33;1.40;;;15.00;73.50;;;;;;5037128;28;20140;-75
2023/04/29 08:38:30;;;;;;;3.22;1.23;;;15.00;73.40;;;;;;5037087;28;20517;-76
2023/04/29 08:40:58;;;;;;;4.35;1.67;;;15.00;72.80;;;;;;5037497;28;20116;-76
2023/04/29 08:43:24;;;;;;;2.10;1.13;;;14.90;72.60;;;;;;5037712;28;20060;-75
2023/04/29 08:45:50;;;;;;;2.67;1.30;;;14.90;72.40;;;;;;5042236;28;20438;-76
2023/04/29 08:48:17;;;;;;;2.05;1.38;;;15.00;72.90;;;;;;5037256;28;20056;-75
2023/04/29 08:50:43;;;;;;;2.20;1.50;;;14.90;72.30;;;;;;5037407;28;20043;-75
2023/04/29 08:53:11;;;;;;;2.10;1.30;;;14.90;73.20;;;;;;5037154;28;20029;-75
2023/04/29 08:55:47;;;;;;;3.83;1.58;;;14.90;72.60;;;;;;5037046;28;20021;-75
2023/04/29 08:58:14;;;;;;;5.82;3.17;;;15.00;71.10;;;;;;5037336;28;20031;-75
2023/04/29 09:00:42;;;;;;;2.63;1.42;;;15.00;70.90;;;;;;5037212;28;20021;-75
2023/04/29 09:03:16;;;;;;;4.05;1.60;;;15.10;70.20;;;;;;5037303;28;20032;-76
2023/04/29 09:05:44;;;;;;;1.70;1.13;;;14.90;70.80;;;;;;5037384;28;20021;-75
2023/04/29 09:08:11;;;;;;;1.80;1.20;;;14.90;71.30;;;;;;5037147;28;20049;-74
2023/04/29 09:10:41;;;;;;;1.52;1.25;;;15.00;69.50;;;;;;5040172;28;20044;-75
2023/04/29 09:13:07;;;;;;;1.98;1.40;;;15.10;69.70;;;;;;5036211;28;20101;-74
2023/04/29 09:15:40;;;;;;;1.30;1.10;;;15.10;71.10;;;;;;5054903;28;20017;-74
2023/04/29 09:18:05;;;;;;;5.28;1.10;;;15.30;69.00;;;;;;5036014;28;20468;-74
2023/04/29 09:20:31;;;;;;;1.33;1.23;;;15.40;68.90;;;;;;5036797;28;20075;-74
2023/04/29 09:23:02;;;;;;;1.65;1.40;;;15.20;68.80;;;;;;5036759;28;20044;-75
2023/04/29 09:25:29;;;;;;;2.85;1.40;;;15.30;68.70;;;;;;5037008;28;20032;-74
2023/04/29 09:27:55;;;;;;;1.80;1.45;;;15.30;67.70;;;;;;5036775;28;20025;-74
2023/04/29 09:30:21;;;;;;;1.40;1.15;;;15.30;68.10;;;;;;5054660;28;20056;-74
2023/04/29 09:33:08;;;;;;;1.63;1.38;;;15.20;69.00;;;;;;5036169;28;20476;-76
2023/04/29 09:35:34;;;;;;;1.95;1.30;;;15.30;68.00;;;;;;5036513;28;20021;-76
2023/04/29 09:38:13;;;;;;;2.10;1.55;;;15.30;68.40;;;;;;5036418;28;20083;-76
2023/04/29 09:40:42;;;;;;;2.78;1.17;;;15.30;69.50;;;;;;5036860;28;20036;-76
2023/04/29 09:43:14;;;;;;;1.65;1.17;;;15.40;67.80;;;;;;5036618;28;20037;-77
2023/04/29 09:45:47;;;;;;;1.75;1.20;;;15.50;68.30;;;;;;5020659;28;20377;-75
2023/04/29 09:48:14;;;;;;;1.83;1.30;;;15.90;68.20;;;;;;5054226;28;20029;-77
2023/04/29 09:50:42;;;;;;;1.35;1.20;;;16.20;65.20;;;;;;5036243;28;20492;-75
2023/04/29 09:53:10;;;;;;;2.35;0.90;;;16.40;64.50;;;;;;5036477;28;20473;-76
2023/04/29 09:55:56;;;;;;;2.75;1.23;;;16.60;64.20;;;;;;5053720;28;20091;-75
2023/04/29 09:58:35;;;;;;;2.78;1.30;;;16.80;64.30;;;;;;5036035;28;20461;-76
2023/04/29 10:01:02;;;;;;;4.82;1.35;;;17.10;62.90;;;;;;5041630;28;20033;-75
2023/04/29 10:03:36;;;;;;;1.77;1.10;;;17.10;60.20;;;;;;5054659;28;20380;-75
2023/04/29 10:06:04;;;;;;;4.22;1.27;;;17.20;60.60;;;;;;5054768;28;20020;-76
2023/04/29 10:08:30;;;;;;;2.28;1.25;;;17.30;59.30;;;;;;5057682;28;20348;-75
2023/04/29 10:11:01;;;;;;;2.30;1.58;;;17.40;59.10;;;;;;5056911;28;20020;-75
2023/04/29 10:13:27;;;;;;;1.40;1.20;;;17.50;57.30;;;;;;5055059;28;20082;-75
2023/04/29 10:16:25;;;;;;;2.55;1.05;;;17.40;58.10;;;;;;5054964;28;20123;-74
2023/04/29 10:18:55;;;;;;;3.17;1.60;;;17.30;58.60;;;;;;5055323;28;20032;-75
2023/04/29 10:21:30;;;;;;;4.18;1.50;;;17.50;57.70;;;;;;5055588;28;20016;-75
2023/04/29 10:23:57;;;;;;;2.90;1.07;;;17.80;55.70;;;;;;5055482;28;20370;-74
2023/04/29 10:26:27;;;;;;;4.03;1.30;;;17.90;57.20;;;;;;5055345;28;20025;-74
2023/04/29 10:28:55;;;;;;;2.15;1.00;;;18.30;54.60;;;;;;5055057;28;20028;-75
2023/04/29 10:31:21;;;;;;;4.10;1.10;;;18.20;53.10;;;;;;5054953;28;20025;-75
2023/04/29 10:33:48;;;;;;;1.10;1.00;;;18.00;53.70;;;;;;5054828;28;20174;-74
2023/04/29 10:36:16;;;;;;;1.27;1.00;;;17.70;55.30;;;;;;5069398;28;20052;-74
2023/04/29 10:38:50;;;;;;;2.75;1.00;;;17.40;55.20;;;;;;5043790;28;20024;-77
2023/04/29 10:41:23;;;;;;;1.45;1.13;;;17.30;56.60;;;;;;5050647;28;20025;-75
2023/04/29 10:43:50;;;;;;;4.53;1.02;;;17.30;57.40;;;;;;5034828;28;20040;-74
2023/04/29 10:46:20;;;;;;;2.63;1.17;;;17.50;57.30;;;;;;5035178;28;20028;-74
2023/04/29 10:48:47;;;;;;;1.02;0.88;;;17.70;55.50;;;;;;5034785;28;20425;-75
2023/04/29 10:51:28;;;;;;;1.63;1.20;;;17.90;54.70;;;;;;5035379;28;20056;-75
2023/04/29 10:54:01;;;;;;;1.85;0.85;;;18.00;54.20;;;;;;5034680;28;20025;-75
2023/04/29 10:56:37;;;;;;;2.10;0.90;;;18.20;51.30;;;;;;5035261;28;20017;-75
2023/04/29 10:59:04;;;;;;;1.52;0.63;;;18.10;51.10;;;;;;5035112;28;20075;-76
2023/04/29 11:01:49;;;;;;;2.13;0.80;;;18.10;51.00;;;;;;5035100;28;20120;-75
2023/04/29 11:04:17;;;;;;;0.60;0.60;;;18.50;50.80;;;;;;5034899;28;20036;-75
2023/04/29 11:06:57;;;;;;;2.13;0.60;;;18.30;48.80;;;;;;5034832;28;20027;-75
2023/04/29 11:09:24;;;;;;;1.52;0.77;;;18.10;50.40;;;;;;5035012;28;20032;-75
2023/04/29 11:12:04;;;;;;;0.70;0.70;;;18.30;48.70;;;;;;5034969;28;20017;-75
2023/04/29 11:14:31;;;;;;;1.15;0.80;;;18.40;49.00;;;;;;5035370;28;20029;-75
2023/04/29 11:16:59;;;;;;;1.83;0.77;;;18.10;49.90;;;;;;5044041;28;20078;-74
2023/04/29 11:19:30;;;;;;;3.35;0.68;;;18.00;49.00;;;;;;5056403;28;20024;-74
2023/04/29 11:22:18;;;;;;;0.60;0.60;;;17.80;51.20;;;;;;5047753;28;20461;-74
2023/04/29 11:24:56;;;;;;;2.67;0.60;;;17.90;50.70;;;;;;5050621;28;20044;-75
2023/04/29 11:27:26;;;;;;;1.83;0.65;;;17.90;50.20;;;;;;5053311;28;20031;-75
2023/04/29 11:29:59;;;;;;;2.95;0.80;;;18.30;49.60;;;;;;5019455;28;20055;-76
2023/04/29 11:32:32;;;;;;;1.40;0.68;;;18.70;49.80;;;;;;5042001;28;20025;-75
2023/04/29 11:35:11;;;;;;;2.25;0.77;;;18.80;49.00;;;;;;5045845;28;20587;-74
2023/04/29 11:37:37;;;;;;;1.42;0.77;;;18.60;49.40;;;;;;5054087;28;20111;-75
2023/04/29 11:40:04;;;;;;;2.88;0.70;;;18.90;46.80;;;;;;5057654;28;20029;-72
2023/04/29 11:42:29;;;;;;;0.88;0.57;;;19.00;48.40;;;;;;5057980;28;20476;-73
2023/04/29 11:44:59;;;;;;;1.30;0.70;;;19.20;46.70;;;;;;5074954;28;20032;-73
2023/04/29 11:47:29;;;;;;;2.03;0.70;;;19.30;47.00;;;;;;5058385;28;20424;-73
2023/04/29 11:50:08;;;;;;;0.50;0.50;;;19.60;46.50;;;;;;5058183;28;20423;-73
2023/04/29 11:52:40;;;;;;;1.00;0.63;;;19.80;45.40;;;;;;5058192;28;20024;-72
2023/04/29 11:55:10;;;;;;;4.57;0.98;;;20.10;44.90;;;;;;5072001;28;20148;-72
2023/04/29 11:57:36;;;;;;;2.58;0.70;;;20.50;44.00;;;;;;5049645;28;20048;-72
2023/04/29 12:00:03;;;;;;;1.42;0.85;;;20.90;42.80;;;;;;5073182;28;20047;-73
2023/04/29 12:02:33;;;;;;;0.70;0.50;;;20.90;43.70;;;;;;5056252;28;20024;-72
2023/04/29 12:04:59;;;;;;;1.23;0.63;;;20.80;41.70;;;;;;5050201;28;20040;-72
2023/04/29 12:07:26;;;;;;;1.63;1.10;;;20.50;42.10;;;;;;5055791;28;20083;-72
2023/04/29 12:09:51;;;;;;;1.25;0.85;;;20.60;42.30;;;;;;5075354;28;20515;-72
2023/04/29 12:12:17;;;;;;;0.57;0.55;;;20.60;41.00;;;;;;5052396;28;20071;-72
2023/04/29 12:14:43;;;;;;;1.95;0.80;;;20.40;41.50;;;;;;5066360;28;20055;-72
2023/04/29 12:17:09;;;;;;;1.85;0.70;;;20.10;42.60;;;;;;5074881;28;20016;-72
2023/04/29 12:19:38;;;;;;;1.40;0.90;;;19.50;42.40;;;;;;5075169;28;20048;-71
2023/04/29 12:22:04;;;;;;;1.38;0.60;;;19.80;43.80;;;;;;5075382;28;20035;-71
2023/04/29 12:24:35;;;;;;;1.98;0.60;;;20.40;42.70;;;;;;5075201;28;20741;-72
2023/04/29 12:27:02;;;;;;;1.83;0.85;;;21.00;41.30;;;;;;5075383;28;20135;-72
2023/04/29 12:29:27;;;;;;;2.78;1.20;;;21.20;39.70;;;;;;5074986;28;20020;-72
2023/04/29 12:31:55;;;;;;;1.45;0.77;;;20.90;41.00;;;;;;5075223;28;20032;-71
2023/04/29 12:34:25;;;;;;;2.55;1.20;;;20.60;39.90;;;;;;5057013;28;20024;-72
2023/04/29 12:36:53;;;;;;;1.38;0.50;;;20.30;41.30;;;;;;5074937;28;20048;-73
2023/04/29 12:39:18;;;;;;;1.30;0.98;;;20.40;40.50;;;;;;5074985;28;20028;-72
2023/04/29 12:41:44;;;;;;;0.68;0.32;;;20.40;41.30;;;;;;5074809;28;20093;-72
2023/04/29 12:44:10;;;;;;;3.38;1.15;;;20.40;41.80;;;;;;5074533;28;20043;-72
2023/04/29 12:46:40;;;;;;;2.55;1.20;;;20.80;41.90;;;;;;5074187;28;20021;-74
2023/04/29 12:49:06;;;;;;;1.35;1.17;;;21.00;40.90;;;;;;5073897;28;20033;-72